Terminal Aerodrome Forecast
Issued by NWS Wichita, KS

Home | Current Version | Previous Version | Text Only | Print | Product List | Glossary On
Versions: 1 2 3 4 5 6 7 8 9 10 11 12 13 14 15 16 17
346
FTUS43 KICT 270520
TAFICT
TAF
KICT 270520Z 2706/2806 12009KT P6SM SCT080
     FM271500 15013KT P6SM BKN035
     FM271700 17017G22KT P6SM BKN035
     FM272000 17022G30KT P6SM BKN040=

USA.gov is the U.S. government's official web portal to all federal, state and local government web resources and services.